sensor_id;sensor_type;location;lat;lon;timestamp;pressure;altitude;pressure_sealevel;temperature;humidity
73501;BME280;61721;42.206;25.320;2022-07-24T00:01:31;99518.16;;;25.69;40.54
73501;BME280;61721;42.206;25.320;2022-07-24T00:03:59;99515.91;;;25.66;40.54
73501;BME280;61721;42.206;25.320;2022-07-24T00:06:26;99515.34;;;25.64;40.88
73501;BME280;61721;42.206;25.320;2022-07-24T00:08:53;99519.88;;;25.58;40.88
73501;BME280;61721;42.206;25.320;2022-07-24T00:11:22;99532.75;;;25.58;40.90
73501;BME280;61721;42.206;25.320;2022-07-24T00:13:52;99532.75;;;25.58;40.50
73501;BME280;61721;42.206;25.320;2022-07-24T00:16:20;99528.44;;;25.62;40.82
73501;BME280;61721;42.206;25.320;2022-07-24T00:18:47;99529.41;;;25.55;40.66
73501;BME280;61721;42.206;25.320;2022-07-24T00:21:14;99528.94;;;25.59;40.96
73501;BME280;61721;42.206;25.320;2022-07-24T00:23:44;99536.56;;;25.57;40.91
73501;BME280;61721;42.206;25.320;2022-07-24T00:26:11;99536.66;;;25.62;40.85
73501;BME280;61721;42.206;25.320;2022-07-24T00:28:38;99545.22;;;25.65;40.38
73501;BME280;61721;42.206;25.320;2022-07-24T00:31:07;99538.00;;;25.59;40.66
73501;BME280;61721;42.206;25.320;2022-07-24T00:33:35;99541.44;;;25.54;40.86
73501;BME280;61721;42.206;25.320;2022-07-24T00:36:04;99543.72;;;25.58;40.99
73501;BME280;61721;42.206;25.320;2022-07-24T00:38:31;99547.06;;;25.60;40.57
73501;BME280;61721;42.206;25.320;2022-07-24T00:40:58;99552.53;;;25.60;40.95
73501;BME280;61721;42.206;25.320;2022-07-24T00:43:25;99546.69;;;25.56;40.70
73501;BME280;61721;42.206;25.320;2022-07-24T00:45:53;99553.47;;;25.53;41.17
73501;BME280;61721;42.206;25.320;2022-07-24T00:48:20;99549.66;;;25.54;41.28
73501;BME280;61721;42.206;25.320;2022-07-24T00:50:48;99559.19;;;25.52;40.77
73501;BME280;61721;42.206;25.320;2022-07-24T00:53:16;99565.41;;;25.47;41.14
73501;BME280;61721;42.206;25.320;2022-07-24T00:55:43;99564.47;;;25.30;41.23
73501;BME280;61721;42.206;25.320;2022-07-24T00:58:11;99563.28;;;25.26;41.66
73501;BME280;61721;42.206;25.320;2022-07-24T01:00:38;99561.63;;;25.25;41.47
73501;BME280;61721;42.206;25.320;2022-07-24T01:03:06;99564.84;;;25.22;41.60
73501;BME280;61721;42.206;25.320;2022-07-24T01:05:33;99559.97;;;25.24;41.34
73501;BME280;61721;42.206;25.320;2022-07-24T01:08:01;99554.50;;;25.24;41.29
73501;BME280;61721;42.206;25.320;2022-07-24T01:10:29;99558.88;;;25.25;41.20
73501;BME280;61721;42.206;25.320;2022-07-24T01:12:56;99551.25;;;25.27;41.31
73501;BME280;61721;42.206;25.320;2022-07-24T01:15:24;99552.34;;;25.26;41.44
73501;BME280;61721;42.206;25.320;2022-07-24T01:17:52;99548.19;;;25.24;41.73
73501;BME280;61721;42.206;25.320;2022-07-24T01:20:19;99551.03;;;25.17;41.69
73501;BME280;61721;42.206;25.320;2022-07-24T01:22:47;99541.66;;;25.13;41.51
73501;BME280;61721;42.206;25.320;2022-07-24T01:25:14;99541.28;;;25.09;41.90
73501;BME280;61721;42.206;25.320;2022-07-24T01:27:42;99542.09;;;25.10;41.47
73501;BME280;61721;42.206;25.320;2022-07-24T01:30:09;99543.78;;;25.11;41.32
73501;BME280;61721;42.206;25.320;2022-07-24T01:32:36;99544.28;;;25.08;41.56
73501;BME280;61721;42.206;25.320;2022-07-24T01:35:05;99545.84;;;25.04;41.35
73501;BME280;61721;42.206;25.320;2022-07-24T01:37:32;99542.59;;;25.07;41.19
73501;BME280;61721;42.206;25.320;2022-07-24T01:40:00;99541.53;;;25.08;40.90
73501;BME280;61721;42.206;25.320;2022-07-24T01:42:28;99527.13;;;25.12;41.17
73501;BME280;61721;42.206;25.320;2022-07-24T01:44:56;99531.88;;;25.17;40.98
73501;BME280;61721;42.206;25.320;2022-07-24T01:47:23;99539.13;;;25.11;41.06
73501;BME280;61721;42.206;25.320;2022-07-24T01:49:51;99533.31;;;25.08;41.21
73501;BME280;61721;42.206;25.320;2022-07-24T01:52:20;99531.53;;;25.02;41.13
73501;BME280;61721;42.206;25.320;2022-07-24T01:54:53;99522.25;;;25.03;41.34
73501;BME280;61721;42.206;25.320;2022-07-24T01:57:23;99519.75;;;25.01;41.13
73501;BME280;61721;42.206;25.320;2022-07-24T01:59:51;99519.97;;;25.00;41.51
73501;BME280;61721;42.206;25.320;2022-07-24T02:02:18;99520.22;;;24.98;41.40
73501;BME280;61721;42.206;25.320;2022-07-24T02:04:45;99521.75;;;24.94;41.01
73501;BME280;61721;42.206;25.320;2022-07-24T02:07:12;99531.31;;;24.92;41.48
73501;BME280;61721;42.206;25.320;2022-07-24T02:09:40;99531.91;;;24.94;41.69
73501;BME280;61721;42.206;25.320;2022-07-24T02:12:07;99526.91;;;24.91;41.34
73501;BME280;61721;42.206;25.320;2022-07-24T02:14:36;99528.41;;;24.87;41.84
73501;BME280;61721;42.206;25.320;2022-07-24T02:17:03;99534.97;;;24.86;42.39
73501;BME280;61721;42.206;25.320;2022-07-24T02:19:30;99541.75;;;24.71;42.70
73501;BME280;61721;42.206;25.320;2022-07-24T02:21:57;99538.41;;;24.58;43.37
73501;BME280;61721;42.206;25.320;2022-07-24T02:24:24;99541.00;;;24.41;44.00
73501;BME280;61721;42.206;25.320;2022-07-24T02:26:51;99539.09;;;24.30;44.63
73501;BME280;61721;42.206;25.320;2022-07-24T02:29:19;99552.09;;;24.16;45.02
73501;BME280;61721;42.206;25.320;2022-07-24T02:31:47;99547.31;;;24.00;45.73
73501;BME280;61721;42.206;25.320;2022-07-24T02:34:14;99545.00;;;23.85;46.30
73501;BME280;61721;42.206;25.320;2022-07-24T02:36:41;99546.47;;;23.70;46.76
73501;BME280;61721;42.206;25.320;2022-07-24T02:39:08;99547.03;;;23.60;47.75
73501;BME280;61721;42.206;25.320;2022-07-24T02:41:36;99535.34;;;23.53;47.81
73501;BME280;61721;42.206;25.320;2022-07-24T02:44:03;99541.31;;;23.43;47.39
73501;BME280;61721;42.206;25.320;2022-07-24T02:46:31;99542.00;;;23.39;47.99
73501;BME280;61721;42.206;25.320;2022-07-24T02:49:02;99540.66;;;23.30;48.24
73501;BME280;61721;42.206;25.320;2022-07-24T02:51:30;99539.88;;;23.23;48.27
73501;BME280;61721;42.206;25.320;2022-07-24T02:53:58;99534.78;;;23.26;47.58
73501;BME280;61721;42.206;25.320;2022-07-24T02:56:25;99546.25;;;23.35;48.28
73501;BME280;61721;42.206;25.320;2022-07-24T02:58:52;99537.59;;;23.38;47.98
73501;BME280;61721;42.206;25.320;2022-07-24T03:01:19;99542.75;;;23.28;48.36
73501;BME280;61721;42.206;25.320;2022-07-24T03:03:46;99540.50;;;23.25;48.92
73501;BME280;61721;42.206;25.320;2022-07-24T03:06:14;99533.59;;;23.22;48.45
73501;BME280;61721;42.206;25.320;2022-07-24T03:08:41;99528.13;;;23.22;48.67
73501;BME280;61721;42.206;25.320;2022-07-24T03:11:08;99544.06;;;23.25;48.81
73501;BME280;61721;42.206;25.320;2022-07-24T03:13:35;99539.44;;;23.26;49.32
73501;BME280;61721;42.206;25.320;2022-07-24T03:16:03;99541.63;;;23.17;49.13
73501;BME280;61721;42.206;25.320;2022-07-24T03:18:30;99535.72;;;23.20;48.56
73501;BME280;61721;42.206;25.320;2022-07-24T03:20:57;99530.63;;;23.24;49.06
73501;BME280;61721;42.206;25.320;2022-07-24T03:23:26;99543.50;;;23.17;49.49
73501;BME280;61721;42.206;25.320;2022-07-24T03:25:53;99541.88;;;23.16;49.31
73501;BME280;61721;42.206;25.320;2022-07-24T03:28:20;99529.88;;;23.17;48.71
73501;BME280;61721;42.206;25.320;2022-07-24T03:30:48;99533.16;;;23.25;48.88
73501;BME280;61721;42.206;25.320;2022-07-24T03:33:15;99537.44;;;23.33;49.04
73501;BME280;61721;42.206;25.320;2022-07-24T03:35:42;99532.47;;;23.30;49.11
73501;BME280;61721;42.206;25.320;2022-07-24T03:38:09;99532.59;;;23.35;48.08
73501;BME280;61721;42.206;25.320;2022-07-24T03:40:38;99533.34;;;23.42;48.51
73501;BME280;61721;42.206;25.320;2022-07-24T03:43:05;99537.53;;;23.44;48.63
73501;BME280;61721;42.206;25.320;2022-07-24T03:45:32;99532.25;;;23.50;48.37
73501;BME280;61721;42.206;25.320;2022-07-24T03:47:59;99536.69;;;23.44;48.04
73501;BME280;61721;42.206;25.320;2022-07-24T03:50:26;99532.06;;;23.44;48.27
73501;BME280;61721;42.206;25.320;2022-07-24T03:52:53;99537.91;;;23.48;47.74
73501;BME280;61721;42.206;25.320;2022-07-24T03:55:20;99543.22;;;23.61;47.82
73501;BME280;61721;42.206;25.320;2022-07-24T03:57:51;99535.19;;;23.66;47.68
73501;BME280;61721;42.206;25.320;2022-07-24T04:00:18;99543.97;;;23.68;47.74
73501;BME280;61721;42.206;25.320;2022-07-24T04:02:45;99540.16;;;23.69;46.94
73501;BME280;61721;42.206;25.320;2022-07-24T04:05:12;99546.75;;;23.80;47.67
73501;BME280;61721;42.206;25.320;2022-07-24T04:07:39;99539.31;;;23.87;47.47
73501;BME280;61721;42.206;25.320;2022-07-24T04:10:08;99548.00;;;23.96;47.15
73501;BME280;61721;42.206;25.320;2022-07-24T04:12:35;99544.69;;;24.05;46.58
73501;BME280;61721;42.206;25.320;2022-07-24T04:15:06;99544.84;;;24.10;46.95
73501;BME280;61721;42.206;25.320;2022-07-24T04:17:55;99542.88;;;24.17;47.16
73501;BME280;61721;42.206;25.320;2022-07-24T04:20:22;99542.63;;;24.19;46.39
73501;BME280;61721;42.206;25.320;2022-07-24T04:22:49;99543.47;;;24.19;46.73
73501;BME280;61721;42.206;25.320;2022-07-24T04:25:17;99543.81;;;24.23;46.35
73501;BME280;61721;42.206;25.320;2022-07-24T04:27:44;99546.44;;;24.29;46.87
73501;BME280;61721;42.206;25.320;2022-07-24T04:30:14;99555.75;;;24.40;46.71
73501;BME280;61721;42.206;25.320;2022-07-24T04:32:41;99550.06;;;24.42;46.13
73501;BME280;61721;42.206;25.320;2022-07-24T04:35:08;99547.19;;;24.48;46.20
73501;BME280;61721;42.206;25.320;2022-07-24T04:37:35;99546.38;;;24.59;46.40
73501;BME280;61721;42.206;25.320;2022-07-24T04:40:03;99554.25;;;24.67;45.87
73501;BME280;61721;42.206;25.320;2022-07-24T04:42:30;99549.84;;;24.78;45.96
73501;BME280;61721;42.206;25.320;2022-07-24T04:44:58;99554.13;;;24.86;46.20
73501;BME280;61721;42.206;25.320;2022-07-24T04:47:26;99554.28;;;24.91;45.73
73501;BME280;61721;42.206;25.320;2022-07-24T04:49:53;99556.19;;;25.02;45.73
73501;BME280;61721;42.206;25.320;2022-07-24T04:52:20;99552.59;;;25.13;45.68
73501;BME280;61721;42.206;25.320;2022-07-24T04:54:47;99558.53;;;25.10;46.42
73501;BME280;61721;42.206;25.320;2022-07-24T04:57:14;99559.03;;;25.19;45.25
73501;BME280;61721;42.206;25.320;2022-07-24T04:59:41;99561.16;;;25.28;45.47
73501;BME280;61721;42.206;25.320;2022-07-24T05:02:09;99553.63;;;25.35;44.99
73501;BME280;61721;42.206;25.320;2022-07-24T05:04:37;99560.03;;;25.52;45.09
73501;BME280;61721;42.206;25.320;2022-07-24T05:07:04;99561.94;;;25.64;44.41
73501;BME280;61721;42.206;25.320;2022-07-24T05:09:31;99556.56;;;25.69;43.58
73501;BME280;61721;42.206;25.320;2022-07-24T05:11:58;99557.19;;;25.47;44.09
73501;BME280;61721;42.206;25.320;2022-07-24T05:14:25;99555.13;;;25.54;44.29
73501;BME280;61721;42.206;25.320;2022-07-24T05:16:52;99559.50;;;25.79;44.04
73501;BME280;61721;42.206;25.320;2022-07-24T05:19:20;99559.09;;;25.87;43.14
73501;BME280;61721;42.206;25.320;2022-07-24T05:21:50;99552.63;;;25.93;43.49
73501;BME280;61721;42.206;25.320;2022-07-24T05:24:18;99552.50;;;26.00;43.16
73501;BME280;61721;42.206;25.320;2022-07-24T05:26:45;99556.81;;;26.12;43.68
73501;BME280;61721;42.206;25.320;2022-07-24T05:29:12;99548.22;;;26.20;43.56
73501;BME280;61721;42.206;25.320;2022-07-24T05:31:40;99551.91;;;26.26;43.02
73501;BME280;61721;42.206;25.320;2022-07-24T05:34:07;99547.22;;;26.26;43.45
73501;BME280;61721;42.206;25.320;2022-07-24T05:36:34;99549.59;;;26.34;43.62
73501;BME280;61721;42.206;25.320;2022-07-24T05:39:06;99545.19;;;26.50;42.88
73501;BME280;61721;42.206;25.320;2022-07-24T05:41:34;99542.75;;;26.70;42.69
73501;BME280;61721;42.206;25.320;2022-07-24T05:44:01;99533.34;;;26.83;42.14
73501;BME280;61721;42.206;25.320;2022-07-24T05:46:28;99531.34;;;26.78;42.17
73501;BME280;61721;42.206;25.320;2022-07-24T05:48:55;99534.91;;;26.79;41.98
73501;BME280;61721;42.206;25.320;2022-07-24T05:51:22;99530.75;;;26.93;42.09
73501;BME280;61721;42.206;25.320;2022-07-24T05:53:49;99528.81;;;27.10;41.36
73501;BME280;61721;42.206;25.320;2022-07-24T05:56:19;99519.44;;;27.06;41.35
73501;BME280;61721;42.206;25.320;2022-07-24T05:58:49;99529.56;;;27.22;40.74
73501;BME280;61721;42.206;25.320;2022-07-24T06:01:17;99530.75;;;27.32;40.70
73501;BME280;61721;42.206;25.320;2022-07-24T06:03:44;99522.66;;;27.42;41.15
73501;BME280;61721;42.206;25.320;2022-07-24T06:06:11;99530.47;;;27.50;41.01
73501;BME280;61721;42.206;25.320;2022-07-24T06:08:41;99525.84;;;27.77;40.22
73501;BME280;61721;42.206;25.320;2022-07-24T06:11:11;99533.38;;;27.87;39.81
73501;BME280;61721;42.206;25.320;2022-07-24T06:13:40;99530.56;;;28.08;39.81
73501;BME280;61721;42.206;25.320;2022-07-24T06:16:07;99534.78;;;28.16;39.58
73501;BME280;61721;42.206;25.320;2022-07-24T06:18:35;99525.25;;;28.24;39.40
73501;BME280;61721;42.206;25.320;2022-07-24T06:21:03;99528.59;;;28.31;39.48
73501;BME280;61721;42.206;25.320;2022-07-24T06:23:30;99519.75;;;28.24;39.87
73501;BME280;61721;42.206;25.320;2022-07-24T06:25:58;99521.63;;;28.18;39.21
73501;BME280;61721;42.206;25.320;2022-07-24T06:28:26;99513.41;;;28.23;38.89
73501;BME280;61721;42.206;25.320;2022-07-24T06:30:54;99516.63;;;28.47;40.00
73501;BME280;61721;42.206;25.320;2022-07-24T06:33:22;99509.06;;;28.64;38.73
73501;BME280;61721;42.206;25.320;2022-07-24T06:35:49;99505.06;;;28.82;38.48
73501;BME280;61721;42.206;25.320;2022-07-24T06:38:17;99511.50;;;28.98;38.39
73501;BME280;61721;42.206;25.320;2022-07-24T06:40:44;99508.19;;;29.01;37.93
73501;BME280;61721;42.206;25.320;2022-07-24T06:43:11;99506.91;;;29.13;37.49
73501;BME280;61721;42.206;25.320;2022-07-24T06:45:38;99504.44;;;29.22;37.15
73501;BME280;61721;42.206;25.320;2022-07-24T06:48:07;99490.88;;;29.05;37.95
73501;BME280;61721;42.206;25.320;2022-07-24T06:50:35;99499.00;;;29.32;37.34
73501;BME280;61721;42.206;25.320;2022-07-24T06:53:02;99490.75;;;29.37;36.97
73501;BME280;61721;42.206;25.320;2022-07-24T06:55:29;99493.81;;;29.36;37.21
73501;BME280;61721;42.206;25.320;2022-07-24T06:57:56;99491.94;;;29.61;36.81
73501;BME280;61721;42.206;25.320;2022-07-24T07:00:23;99482.09;;;29.86;36.15
73501;BME280;61721;42.206;25.320;2022-07-24T07:02:50;99482.16;;;30.16;36.07
73501;BME280;61721;42.206;25.320;2022-07-24T07:05:19;99488.22;;;30.23;35.05
73501;BME280;61721;42.206;25.320;2022-07-24T07:07:46;99481.81;;;30.83;34.83
73501;BME280;61721;42.206;25.320;2022-07-24T07:10:13;99470.75;;;31.04;34.29
73501;BME280;61721;42.206;25.320;2022-07-24T07:12:40;99471.72;;;31.92;31.93
73501;BME280;61721;42.206;25.320;2022-07-24T07:15:08;99471.94;;;31.52;33.56
73501;BME280;61721;42.206;25.320;2022-07-24T07:17:37;99470.72;;;31.14;34.67
73501;BME280;61721;42.206;25.320;2022-07-24T07:20:06;99472.13;;;31.06;35.17
73501;BME280;61721;42.206;25.320;2022-07-24T07:22:35;99469.34;;;31.01;34.01
73501;BME280;61721;42.206;25.320;2022-07-24T07:25:03;99463.22;;;31.19;34.64
73501;BME280;61721;42.206;25.320;2022-07-24T07:27:30;99469.28;;;31.26;34.25
73501;BME280;61721;42.206;25.320;2022-07-24T07:29:57;99461.22;;;31.35;33.35
73501;BME280;61721;42.206;25.320;2022-07-24T07:32:24;99469.19;;;31.47;32.42
73501;BME280;61721;42.206;25.320;2022-07-24T07:34:51;99463.59;;;31.62;32.66
73501;BME280;61721;42.206;25.320;2022-07-24T07:37:19;99460.09;;;31.90;32.60
73501;BME280;61721;42.206;25.320;2022-07-24T07:39:47;99457.09;;;31.81;32.50
73501;BME280;61721;42.206;25.320;2022-07-24T07:42:14;99447.00;;;32.01;32.02
73501;BME280;61721;42.206;25.320;2022-07-24T07:44:41;99454.44;;;32.05;32.29
73501;BME280;61721;42.206;25.320;2022-07-24T07:47:08;99452.81;;;32.04;32.11
73501;BME280;61721;42.206;25.320;2022-07-24T07:49:35;99456.88;;;32.51;31.88
73501;BME280;61721;42.206;25.320;2022-07-24T07:52:03;99451.59;;;32.78;31.04
73501;BME280;61721;42.206;25.320;2022-07-24T07:54:30;99452.56;;;32.92;30.70
73501;BME280;61721;42.206;25.320;2022-07-24T07:56:59;99452.22;;;32.75;30.65
73501;BME280;61721;42.206;25.320;2022-07-24T07:59:26;99443.72;;;32.90;30.86
73501;BME280;61721;42.206;25.320;2022-07-24T08:01:53;99444.53;;;33.15;30.68
73501;BME280;61721;42.206;25.320;2022-07-24T08:04:20;99448.88;;;33.26;30.38
73501;BME280;61721;42.206;25.320;2022-07-24T08:06:48;99442.88;;;33.14;30.50
73501;BME280;61721;42.206;25.320;2022-07-24T08:09:15;99440.44;;;33.07;30.37
73501;BME280;61721;42.206;25.320;2022-07-24T08:11:42;99440.56;;;32.73;31.34
73501;BME280;61721;42.206;25.320;2022-07-24T08:14:10;99445.09;;;33.17;29.85
73501;BME280;61721;42.206;25.320;2022-07-24T08:16:37;99434.72;;;33.46;30.17
73501;BME280;61721;42.206;25.320;2022-07-24T08:19:05;99432.03;;;33.17;29.32
73501;BME280;61721;42.206;25.320;2022-07-24T08:21:32;99435.44;;;33.33;29.72
73501;BME280;61721;42.206;25.320;2022-07-24T08:23:59;99428.00;;;33.28;29.83
73501;BME280;61721;42.206;25.320;2022-07-24T08:26:26;99430.72;;;33.33;29.09
73501;BME280;61721;42.206;25.320;2022-07-24T08:28:56;99431.53;;;33.34;29.12
73501;BME280;61721;42.206;25.320;2022-07-24T08:31:26;99427.97;;;33.89;28.68
73501;BME280;61721;42.206;25.320;2022-07-24T08:33:53;99422.81;;;34.34;28.49
73501;BME280;61721;42.206;25.320;2022-07-24T08:36:21;99419.16;;;34.52;28.51
73501;BME280;61721;42.206;25.320;2022-07-24T08:38:48;99424.41;;;34.67;27.85
73501;BME280;61721;42.206;25.320;2022-07-24T08:41:16;99420.19;;;34.56;27.59
73501;BME280;61721;42.206;25.320;2022-07-24T08:43:44;99428.88;;;34.68;27.48
73501;BME280;61721;42.206;25.320;2022-07-24T08:46:11;99422.09;;;34.88;28.06
73501;BME280;61721;42.206;25.320;2022-07-24T08:48:44;99424.97;;;34.97;27.93
73501;BME280;61721;42.206;25.320;2022-07-24T08:51:12;99430.63;;;35.05;27.02
73501;BME280;61721;42.206;25.320;2022-07-24T08:53:40;99425.19;;;35.14;26.44
73501;BME280;61721;42.206;25.320;2022-07-24T08:56:09;99433.16;;;34.47;26.83
73501;BME280;61721;42.206;25.320;2022-07-24T08:58:37;99419.19;;;35.07;26.74
73501;BME280;61721;42.206;25.320;2022-07-24T09:01:05;99409.84;;;35.03;26.67
73501;BME280;61721;42.206;25.320;2022-07-24T09:03:40;99410.97;;;35.29;26.27
73501;BME280;61721;42.206;25.320;2022-07-24T09:06:10;99400.81;;;35.47;26.15
73501;BME280;61721;42.206;25.320;2022-07-24T09:08:38;99396.22;;;35.78;25.75
73501;BME280;61721;42.206;25.320;2022-07-24T09:11:06;99395.84;;;35.57;25.45
73501;BME280;61721;42.206;25.320;2022-07-24T09:13:35;99398.19;;;36.00;25.76
73501;BME280;61721;42.206;25.320;2022-07-24T09:16:21;99395.84;;;35.57;25.63
73501;BME280;61721;42.206;25.320;2022-07-24T09:18:50;99392.13;;;35.76;26.25
73501;BME280;61721;42.206;25.320;2022-07-24T09:21:19;99393.72;;;35.77;25.63
73501;BME280;61721;42.206;25.320;2022-07-24T09:23:46;99386.84;;;35.74;25.02
73501;BME280;61721;42.206;25.320;2022-07-24T09:26:14;99385.84;;;35.70;25.54
73501;BME280;61721;42.206;25.320;2022-07-24T09:28:51;99381.63;;;35.59;26.47
73501;BME280;61721;42.206;25.320;2022-07-24T09:31:19;99377.06;;;35.63;26.25
73501;BME280;61721;42.206;25.320;2022-07-24T09:33:48;99377.50;;;36.15;24.80
73501;BME280;61721;42.206;25.320;2022-07-24T09:36:17;99377.78;;;36.35;25.70
73501;BME280;61721;42.206;25.320;2022-07-24T09:38:48;99377.16;;;35.94;26.03
73501;BME280;61721;42.206;25.320;2022-07-24T09:41:20;99369.19;;;36.23;25.62
73501;BME280;61721;42.206;25.320;2022-07-24T09:43:57;99365.69;;;36.49;25.28
73501;BME280;61721;42.206;25.320;2022-07-24T09:46:26;99365.91;;;36.21;23.57
73501;BME280;61721;42.206;25.320;2022-07-24T09:48:55;99367.03;;;35.98;24.27
73501;BME280;61721;42.206;25.320;2022-07-24T09:51:33;99365.25;;;36.02;25.54
73501;BME280;61721;42.206;25.320;2022-07-24T09:54:03;99358.47;;;36.48;24.73
73501;BME280;61721;42.206;25.320;2022-07-24T09:56:31;99364.16;;;36.65;24.58
73501;BME280;61721;42.206;25.320;2022-07-24T09:59:02;99353.41;;;36.89;24.25
73501;BME280;61721;42.206;25.320;2022-07-24T10:01:38;99358.16;;;36.80;24.63
73501;BME280;61721;42.206;25.320;2022-07-24T10:04:10;99357.72;;;37.04;24.28
73501;BME280;61721;42.206;25.320;2022-07-24T10:06:40;99353.53;;;36.67;24.55
73501;BME280;61721;42.206;25.320;2022-07-24T10:09:12;99347.59;;;36.37;24.78
73501;BME280;61721;42.206;25.320;2022-07-24T10:11:42;99343.09;;;36.59;24.59
73501;BME280;61721;42.206;25.320;2022-07-24T10:14:14;99337.94;;;36.66;24.76
73501;BME280;61721;42.206;25.320;2022-07-24T10:17:01;99333.41;;;36.87;23.96
73501;BME280;61721;42.206;25.320;2022-07-24T10:19:39;99333.88;;;36.89;23.99
73501;BME280;61721;42.206;25.320;2022-07-24T10:22:29;99319.28;;;36.53;24.55
73501;BME280;61721;42.206;25.320;2022-07-24T10:25:07;99316.66;;;36.48;25.04
73501;BME280;61721;42.206;25.320;2022-07-24T10:27:38;99322.25;;;37.04;23.75
73501;BME280;61721;42.206;25.320;2022-07-24T10:30:09;99317.56;;;37.31;23.79
73501;BME280;61721;42.206;25.320;2022-07-24T10:32:37;99312.38;;;36.98;23.26
73501;BME280;61721;42.206;25.320;2022-07-24T10:35:11;99306.88;;;37.50;22.92
73501;BME280;61721;42.206;25.320;2022-07-24T10:37:49;99306.16;;;37.01;23.80
73501;BME280;61721;42.206;25.320;2022-07-24T10:40:24;99302.88;;;36.99;23.89
73501;BME280;61721;42.206;25.320;2022-07-24T10:43:11;99306.47;;;36.91;23.60
73501;BME280;61721;42.206;25.320;2022-07-24T10:45:40;99304.56;;;37.09;24.26
73501;BME280;61721;42.206;25.320;2022-07-24T10:48:28;99296.84;;;37.40;23.38
73501;BME280;61721;42.206;25.320;2022-07-24T10:54:43;99293.41;;;37.52;22.42
73501;BME280;61721;42.206;25.320;2022-07-24T10:57:15;99291.44;;;37.18;22.99
73501;BME280;61721;42.206;25.320;2022-07-24T10:59:44;99287.16;;;37.46;23.42
73501;BME280;61721;42.206;25.320;2022-07-24T11:02:30;99290.06;;;36.98;23.47
73501;BME280;61721;42.206;25.320;2022-07-24T11:05:23;99281.09;;;37.36;22.98
73501;BME280;61721;42.206;25.320;2022-07-24T11:10:59;99283.22;;;37.39;22.98
73501;BME280;61721;42.206;25.320;2022-07-24T11:13:47;99272.34;;;37.80;21.84
73501;BME280;61721;42.206;25.320;2022-07-24T11:16:19;99260.16;;;37.93;22.88
73501;BME280;61721;42.206;25.320;2022-07-24T11:19:31;99265.84;;;37.59;22.54
73501;BME280;61721;42.206;25.320;2022-07-24T11:22:12;99254.75;;;37.88;22.14
73501;BME280;61721;42.206;25.320;2022-07-24T11:24:40;99258.91;;;37.48;22.42
73501;BME280;61721;42.206;25.320;2022-07-24T11:27:41;99257.47;;;37.59;22.43
73501;BME280;61721;42.206;25.320;2022-07-24T11:30:16;99248.88;;;37.73;22.33
73501;BME280;61721;42.206;25.320;2022-07-24T11:32:49;99245.69;;;37.91;21.54
73501;BME280;61721;42.206;25.320;2022-07-24T11:35:31;99245.63;;;38.17;21.65
73501;BME280;61721;42.206;25.320;2022-07-24T11:38:00;99240.97;;;38.30;22.06
73501;BME280;61721;42.206;25.320;2022-07-24T11:40:34;99230.53;;;38.47;20.42
73501;BME280;61721;42.206;25.320;2022-07-24T11:43:03;99226.31;;;38.62;21.34
73501;BME280;61721;42.206;25.320;2022-07-24T11:45:37;99219.88;;;38.70;20.56
73501;BME280;61721;42.206;25.320;2022-07-24T11:48:06;99220.34;;;38.72;21.16
73501;BME280;61721;42.206;25.320;2022-07-24T11:50:33;99215.25;;;38.45;21.16
73501;BME280;61721;42.206;25.320;2022-07-24T11:53:05;99216.66;;;38.22;21.11
73501;BME280;61721;42.206;25.320;2022-07-24T11:55:33;99204.22;;;38.10;22.04
73501;BME280;61721;42.206;25.320;2022-07-24T11:58:00;99213.06;;;38.50;21.35
73501;BME280;61721;42.206;25.320;2022-07-24T12:00:28;99207.56;;;38.63;20.45
73501;BME280;61721;42.206;25.320;2022-07-24T12:02:58;99210.63;;;38.40;21.51
73501;BME280;61721;42.206;25.320;2022-07-24T12:05:27;99200.09;;;38.46;21.63
73501;BME280;61721;42.206;25.320;2022-07-24T12:07:56;99189.22;;;38.53;20.82
73501;BME280;61721;42.206;25.320;2022-07-24T12:10:25;99193.63;;;38.25;21.56
73501;BME280;61721;42.206;25.320;2022-07-24T12:12:53;99187.44;;;38.10;21.09
73501;BME280;61721;42.206;25.320;2022-07-24T12:15:21;99184.38;;;38.33;20.62
73501;BME280;61721;42.206;25.320;2022-07-24T12:17:58;99187.44;;;38.10;20.64
73501;BME280;61721;42.206;25.320;2022-07-24T12:20:38;99177.25;;;38.15;20.60
73501;BME280;61721;42.206;25.320;2022-07-24T12:23:10;99176.44;;;38.14;20.46
73501;BME280;61721;42.206;25.320;2022-07-24T12:25:38;99171.72;;;38.27;20.64
73501;BME280;61721;42.206;25.320;2022-07-24T12:28:06;99174.53;;;38.27;20.42
73501;BME280;61721;42.206;25.320;2022-07-24T12:30:35;99161.94;;;38.50;19.99
73501;BME280;61721;42.206;25.320;2022-07-24T12:33:06;99153.75;;;38.45;20.45
73501;BME280;61721;42.206;25.320;2022-07-24T12:35:34;99151.41;;;38.47;20.12
73501;BME280;61721;42.206;25.320;2022-07-24T12:38:03;99145.19;;;38.62;20.75
73501;BME280;61721;42.206;25.320;2022-07-24T12:40:35;99136.16;;;38.65;19.46
73501;BME280;61721;42.206;25.320;2022-07-24T12:43:09;99135.84;;;38.58;20.81
73501;BME280;61721;42.206;25.320;2022-07-24T12:45:38;99140.22;;;38.68;20.78
73501;BME280;61721;42.206;25.320;2022-07-24T12:51:05;99125.00;;;38.57;20.18
73501;BME280;61721;42.206;25.320;2022-07-24T12:53:37;99122.47;;;39.05;18.61
73501;BME280;61721;42.206;25.320;2022-07-24T12:56:13;99127.91;;;39.02;20.36
73501;BME280;61721;42.206;25.320;2022-07-24T12:58:56;99123.03;;;38.78;19.81
73501;BME280;61721;42.206;25.320;2022-07-24T13:01:26;99108.16;;;38.86;19.04
73501;BME280;61721;42.206;25.320;2022-07-24T13:03:58;99107.06;;;38.78;19.73
73501;BME280;61721;42.206;25.320;2022-07-24T13:06:35;99106.31;;;39.23;19.63
73501;BME280;61721;42.206;25.320;2022-07-24T13:09:04;99102.13;;;39.29;19.35
73501;BME280;61721;42.206;25.320;2022-07-24T13:11:31;99100.91;;;39.06;19.06